sensor_id;sensor_type;location;lat;lon;timestamp;P1;durP1;ratioP1;P2;durP2;ratioP2
23539;SDS011;11947;50.810;4.394;2023-02-15T00:01:39;128.80;;;47.10;;
23539;SDS011;11947;50.810;4.394;2023-02-15T00:04:05;129.00;;;46.75;;
23539;SDS011;11947;50.810;4.394;2023-02-15T00:06:32;125.55;;;47.08;;
23539;SDS011;11947;50.810;4.394;2023-02-15T00:08:58;124.72;;;46.75;;
23539;SDS011;11947;50.810;4.394;2023-02-15T00:11:23;118.55;;;45.75;;
23539;SDS011;11947;50.810;4.394;2023-02-15T00:14:25;124.35;;;45.65;;
23539;SDS011;11947;50.810;4.394;2023-02-15T00:16:51;121.90;;;44.90;;
23539;SDS011;11947;50.810;4.394;2023-02-15T00:19:18;123.10;;;45.50;;
23539;SDS011;11947;50.810;4.394;2023-02-15T00:21:45;119.63;;;45.33;;
23539;SDS011;11947;50.810;4.394;2023-02-15T00:24:12;120.28;;;46.03;;
23539;SDS011;11947;50.810;4.394;2023-02-15T00:26:40;123.82;;;45.28;;
23539;SDS011;11947;50.810;4.394;2023-02-15T00:29:07;122.53;;;44.38;;
23539;SDS011;11947;50.810;4.394;2023-02-15T00:31:33;131.52;;;47.22;;
23539;SDS011;11947;50.810;4.394;2023-02-15T00:34:06;130.65;;;45.40;;
23539;SDS011;11947;50.810;4.394;2023-02-15T00:36:36;137.35;;;46.83;;
23539;SDS011;11947;50.810;4.394;2023-02-15T00:39:02;129.80;;;45.58;;
23539;SDS011;11947;50.810;4.394;2023-02-15T00:41:29;127.03;;;44.78;;
23539;SDS011;11947;50.810;4.394;2023-02-15T00:43:55;108.97;;;43.00;;
23539;SDS011;11947;50.810;4.394;2023-02-15T00:46:21;122.93;;;43.53;;
23539;SDS011;11947;50.810;4.394;2023-02-15T00:48:46;118.47;;;44.15;;
23539;SDS011;11947;50.810;4.394;2023-02-15T00:51:12;124.32;;;43.35;;
23539;SDS011;11947;50.810;4.394;2023-02-15T00:53:42;116.97;;;42.55;;
23539;SDS011;11947;50.810;4.394;2023-02-15T00:56:09;119.78;;;43.50;;
23539;SDS011;11947;50.810;4.394;2023-02-15T00:58:35;120.22;;;43.33;;
23539;SDS011;11947;50.810;4.394;2023-02-15T01:01:05;117.47;;;43.70;;
23539;SDS011;11947;50.810;4.394;2023-02-15T01:03:35;123.78;;;43.90;;
23539;SDS011;11947;50.810;4.394;2023-02-15T01:06:01;121.22;;;44.08;;
23539;SDS011;11947;50.810;4.394;2023-02-15T01:08:28;117.30;;;42.58;;
23539;SDS011;11947;50.810;4.394;2023-02-15T01:10:54;115.90;;;42.95;;
23539;SDS011;11947;50.810;4.394;2023-02-15T01:13:20;128.30;;;45.22;;
23539;SDS011;11947;50.810;4.394;2023-02-15T01:15:52;129.65;;;44.30;;
23539;SDS011;11947;50.810;4.394;2023-02-15T01:18:19;113.45;;;42.17;;
23539;SDS011;11947;50.810;4.394;2023-02-15T01:20:45;121.95;;;44.80;;
23539;SDS011;11947;50.810;4.394;2023-02-15T01:23:12;123.40;;;43.03;;
23539;SDS011;11947;50.810;4.394;2023-02-15T01:25:38;118.97;;;45.80;;
23539;SDS011;11947;50.810;4.394;2023-02-15T01:28:03;124.22;;;43.50;;
23539;SDS011;11947;50.810;4.394;2023-02-15T01:30:30;125.97;;;44.72;;
23539;SDS011;11947;50.810;4.394;2023-02-15T01:32:56;126.38;;;45.38;;
23539;SDS011;11947;50.810;4.394;2023-02-15T01:35:22;122.05;;;43.58;;
23539;SDS011;11947;50.810;4.394;2023-02-15T01:37:48;117.88;;;44.88;;
23539;SDS011;11947;50.810;4.394;2023-02-15T01:40:14;121.72;;;44.03;;
23539;SDS011;11947;50.810;4.394;2023-02-15T01:42:42;121.50;;;43.58;;
23539;SDS011;11947;50.810;4.394;2023-02-15T01:45:18;115.72;;;43.80;;
23539;SDS011;11947;50.810;4.394;2023-02-15T01:47:59;125.90;;;43.47;;
23539;SDS011;11947;50.810;4.394;2023-02-15T01:50:47;115.43;;;43.75;;
23539;SDS011;11947;50.810;4.394;2023-02-15T01:56:20;114.75;;;41.40;;
23539;SDS011;11947;50.810;4.394;2023-02-15T01:58:50;120.68;;;43.88;;
23539;SDS011;11947;50.810;4.394;2023-02-15T02:01:20;110.28;;;42.13;;
23539;SDS011;11947;50.810;4.394;2023-02-15T02:06:22;120.40;;;43.47;;
23539;SDS011;11947;50.810;4.394;2023-02-15T02:08:48;119.72;;;44.45;;
23539;SDS011;11947;50.810;4.394;2023-02-15T02:11:14;117.30;;;42.55;;
23539;SDS011;11947;50.810;4.394;2023-02-15T02:13:40;114.70;;;42.58;;
23539;SDS011;11947;50.810;4.394;2023-02-15T02:16:20;113.97;;;43.17;;
23539;SDS011;11947;50.810;4.394;2023-02-15T02:22:02;112.97;;;41.05;;
23539;SDS011;11947;50.810;4.394;2023-02-15T02:32:50;116.97;;;42.45;;
23539;SDS011;11947;50.810;4.394;2023-02-15T02:35:39;112.18;;;41.40;;
23539;SDS011;11947;50.810;4.394;2023-02-15T02:41:17;120.68;;;42.42;;
23539;SDS011;11947;50.810;4.394;2023-02-15T02:46:22;110.38;;;41.22;;
23539;SDS011;11947;50.810;4.394;2023-02-15T02:48:53;107.35;;;40.17;;
23539;SDS011;11947;50.810;4.394;2023-02-15T02:51:19;112.00;;;41.58;;
23539;SDS011;11947;50.810;4.394;2023-02-15T02:53:51;110.45;;;40.38;;
23539;SDS011;11947;50.810;4.394;2023-02-15T02:56:21;115.15;;;41.45;;
23539;SDS011;11947;50.810;4.394;2023-02-15T02:58:59;112.85;;;42.35;;
23539;SDS011;11947;50.810;4.394;2023-02-15T03:01:38;109.90;;;40.88;;
23539;SDS011;11947;50.810;4.394;2023-02-15T03:04:10;115.95;;;41.75;;
23539;SDS011;11947;50.810;4.394;2023-02-15T03:06:41;107.43;;;42.00;;
23539;SDS011;11947;50.810;4.394;2023-02-15T03:09:24;114.65;;;42.55;;
23539;SDS011;11947;50.810;4.394;2023-02-15T03:12:07;108.80;;;41.55;;
23539;SDS011;11947;50.810;4.394;2023-02-15T03:14:45;116.18;;;41.05;;
23539;SDS011;11947;50.810;4.394;2023-02-15T03:17:14;110.88;;;41.95;;
23539;SDS011;11947;50.810;4.394;2023-02-15T03:19:43;115.53;;;40.85;;
23539;SDS011;11947;50.810;4.394;2023-02-15T03:22:21;106.70;;;41.40;;
23539;SDS011;11947;50.810;4.394;2023-02-15T03:24:57;109.03;;;40.30;;
23539;SDS011;11947;50.810;4.394;2023-02-15T03:27:34;116.65;;;41.45;;
23539;SDS011;11947;50.810;4.394;2023-02-15T03:30:04;111.47;;;40.42;;
23539;SDS011;11947;50.810;4.394;2023-02-15T03:32:32;110.28;;;41.20;;
23539;SDS011;11947;50.810;4.394;2023-02-15T03:34:59;112.28;;;40.58;;
23539;SDS011;11947;50.810;4.394;2023-02-15T03:40:00;106.20;;;39.75;;
23539;SDS011;11947;50.810;4.394;2023-02-15T03:42:58;109.50;;;41.28;;
23539;SDS011;11947;50.810;4.394;2023-02-15T03:45:29;113.78;;;40.72;;
23539;SDS011;11947;50.810;4.394;2023-02-15T03:47:57;112.50;;;41.58;;
23539;SDS011;11947;50.810;4.394;2023-02-15T03:50:26;112.68;;;42.05;;
23539;SDS011;11947;50.810;4.394;2023-02-15T03:53:13;112.43;;;40.90;;
23539;SDS011;11947;50.810;4.394;2023-02-15T03:55:41;109.93;;;41.05;;
23539;SDS011;11947;50.810;4.394;2023-02-15T03:58:10;110.70;;;42.05;;
23539;SDS011;11947;50.810;4.394;2023-02-15T04:00:58;115.47;;;41.70;;
23539;SDS011;11947;50.810;4.394;2023-02-15T04:03:52;112.60;;;39.72;;
23539;SDS011;11947;50.810;4.394;2023-02-15T04:06:24;114.82;;;41.70;;
23539;SDS011;11947;50.810;4.394;2023-02-15T04:08:49;113.72;;;41.33;;
23539;SDS011;11947;50.810;4.394;2023-02-15T04:11:34;110.85;;;40.90;;
23539;SDS011;11947;50.810;4.394;2023-02-15T04:13:59;112.80;;;41.13;;
23539;SDS011;11947;50.810;4.394;2023-02-15T04:16:45;105.90;;;40.15;;
23539;SDS011;11947;50.810;4.394;2023-02-15T04:19:10;108.68;;;40.97;;
23539;SDS011;11947;50.810;4.394;2023-02-15T04:21:54;113.65;;;41.45;;
23539;SDS011;11947;50.810;4.394;2023-02-15T04:24:38;104.88;;;40.80;;
23539;SDS011;11947;50.810;4.394;2023-02-15T04:27:22;113.47;;;39.85;;
23539;SDS011;11947;50.810;4.394;2023-02-15T04:29:48;107.80;;;41.38;;
23539;SDS011;11947;50.810;4.394;2023-02-15T04:32:14;117.82;;;41.45;;
23539;SDS011;11947;50.810;4.394;2023-02-15T04:34:40;106.45;;;40.15;;
23539;SDS011;11947;50.810;4.394;2023-02-15T04:37:06;111.05;;;41.28;;
23539;SDS011;11947;50.810;4.394;2023-02-15T04:39:31;116.22;;;43.00;;
23539;SDS011;11947;50.810;4.394;2023-02-15T04:41:57;119.65;;;40.75;;
23539;SDS011;11947;50.810;4.394;2023-02-15T04:44:22;104.05;;;40.17;;
23539;SDS011;11947;50.810;4.394;2023-02-15T04:46:48;124.18;;;42.20;;
23539;SDS011;11947;50.810;4.394;2023-02-15T04:49:14;108.55;;;40.53;;
23539;SDS011;11947;50.810;4.394;2023-02-15T04:51:39;113.65;;;42.58;;
23539;SDS011;11947;50.810;4.394;2023-02-15T04:54:05;110.05;;;40.53;;
23539;SDS011;11947;50.810;4.394;2023-02-15T04:56:30;113.03;;;39.95;;
23539;SDS011;11947;50.810;4.394;2023-02-15T04:58:58;113.82;;;39.90;;
23539;SDS011;11947;50.810;4.394;2023-02-15T05:01:23;102.72;;;39.58;;
23539;SDS011;11947;50.810;4.394;2023-02-15T05:03:49;113.03;;;41.85;;
23539;SDS011;11947;50.810;4.394;2023-02-15T05:06:14;112.43;;;40.88;;
23539;SDS011;11947;50.810;4.394;2023-02-15T05:08:40;105.20;;;41.38;;
23539;SDS011;11947;50.810;4.394;2023-02-15T05:11:05;115.05;;;42.80;;
23539;SDS011;11947;50.810;4.394;2023-02-15T05:13:31;114.00;;;41.03;;
23539;SDS011;11947;50.810;4.394;2023-02-15T05:15:57;108.70;;;40.63;;
23539;SDS011;11947;50.810;4.394;2023-02-15T05:18:22;110.07;;;41.55;;
23539;SDS011;11947;50.810;4.394;2023-02-15T05:20:48;114.03;;;40.50;;
23539;SDS011;11947;50.810;4.394;2023-02-15T05:23:14;103.70;;;38.88;;
23539;SDS011;11947;50.810;4.394;2023-02-15T05:25:40;101.32;;;40.08;;
23539;SDS011;11947;50.810;4.394;2023-02-15T05:28:27;98.78;;;38.90;;
23539;SDS011;11947;50.810;4.394;2023-02-15T05:30:59;103.05;;;40.45;;
23539;SDS011;11947;50.810;4.394;2023-02-15T05:33:28;114.55;;;42.25;;
23539;SDS011;11947;50.810;4.394;2023-02-15T05:35:54;109.20;;;40.88;;
23539;SDS011;11947;50.810;4.394;2023-02-15T05:38:19;118.07;;;43.67;;
23539;SDS011;11947;50.810;4.394;2023-02-15T05:40:45;107.07;;;40.38;;
23539;SDS011;11947;50.810;4.394;2023-02-15T05:43:10;120.72;;;43.50;;
23539;SDS011;11947;50.810;4.394;2023-02-15T05:45:36;123.85;;;42.35;;
23539;SDS011;11947;50.810;4.394;2023-02-15T05:48:02;122.05;;;43.05;;
23539;SDS011;11947;50.810;4.394;2023-02-15T05:50:27;124.95;;;42.78;;
23539;SDS011;11947;50.810;4.394;2023-02-15T05:52:53;115.45;;;44.38;;
23539;SDS011;11947;50.810;4.394;2023-02-15T05:55:19;109.47;;;41.90;;
23539;SDS011;11947;50.810;4.394;2023-02-15T05:57:44;117.05;;;42.80;;
23539;SDS011;11947;50.810;4.394;2023-02-15T06:00:11;118.80;;;43.45;;
23539;SDS011;11947;50.810;4.394;2023-02-15T06:02:37;116.72;;;42.78;;
23539;SDS011;11947;50.810;4.394;2023-02-15T06:05:03;108.13;;;41.38;;
23539;SDS011;11947;50.810;4.394;2023-02-15T06:07:30;114.20;;;41.50;;
23539;SDS011;11947;50.810;4.394;2023-02-15T06:09:55;114.28;;;43.38;;
23539;SDS011;11947;50.810;4.394;2023-02-15T06:12:21;111.85;;;41.80;;
23539;SDS011;11947;50.810;4.394;2023-02-15T06:14:47;121.30;;;43.25;;
23539;SDS011;11947;50.810;4.394;2023-02-15T06:17:12;116.03;;;42.85;;
23539;SDS011;11947;50.810;4.394;2023-02-15T06:19:38;123.20;;;42.30;;
23539;SDS011;11947;50.810;4.394;2023-02-15T06:22:03;118.85;;;43.13;;
23539;SDS011;11947;50.810;4.394;2023-02-15T06:24:31;118.45;;;42.83;;
23539;SDS011;11947;50.810;4.394;2023-02-15T06:26:57;119.93;;;41.92;;
23539;SDS011;11947;50.810;4.394;2023-02-15T06:29:23;111.57;;;42.70;;
23539;SDS011;11947;50.810;4.394;2023-02-15T06:31:48;117.85;;;44.60;;
23539;SDS011;11947;50.810;4.394;2023-02-15T06:34:14;118.20;;;44.05;;
23539;SDS011;11947;50.810;4.394;2023-02-15T06:36:40;120.30;;;43.58;;
23539;SDS011;11947;50.810;4.394;2023-02-15T06:39:05;111.13;;;43.58;;
23539;SDS011;11947;50.810;4.394;2023-02-15T06:41:31;111.45;;;42.78;;
23539;SDS011;11947;50.810;4.394;2023-02-15T06:43:56;124.00;;;43.17;;
23539;SDS011;11947;50.810;4.394;2023-02-15T06:46:22;124.95;;;44.15;;
23539;SDS011;11947;50.810;4.394;2023-02-15T06:48:48;116.68;;;44.15;;
23539;SDS011;11947;50.810;4.394;2023-02-15T06:51:13;117.22;;;44.17;;
23539;SDS011;11947;50.810;4.394;2023-02-15T06:53:39;131.55;;;46.97;;
23539;SDS011;11947;50.810;4.394;2023-02-15T06:56:07;125.40;;;45.17;;
23539;SDS011;11947;50.810;4.394;2023-02-15T06:58:34;120.90;;;44.50;;
23539;SDS011;11947;50.810;4.394;2023-02-15T07:01:00;117.50;;;43.22;;
23539;SDS011;11947;50.810;4.394;2023-02-15T07:03:26;119.28;;;43.80;;
23539;SDS011;11947;50.810;4.394;2023-02-15T07:05:58;123.32;;;44.55;;
23539;SDS011;11947;50.810;4.394;2023-02-15T07:08:26;120.03;;;43.85;;
23539;SDS011;11947;50.810;4.394;2023-02-15T07:10:52;121.10;;;43.45;;
23539;SDS011;11947;50.810;4.394;2023-02-15T07:13:19;118.60;;;44.95;;
23539;SDS011;11947;50.810;4.394;2023-02-15T07:15:47;118.40;;;42.78;;
23539;SDS011;11947;50.810;4.394;2023-02-15T07:18:13;115.65;;;43.88;;
23539;SDS011;11947;50.810;4.394;2023-02-15T07:20:39;113.45;;;43.67;;
23539;SDS011;11947;50.810;4.394;2023-02-15T07:23:06;123.13;;;44.45;;
23539;SDS011;11947;50.810;4.394;2023-02-15T07:25:33;122.43;;;44.38;;
23539;SDS011;11947;50.810;4.394;2023-02-15T07:27:59;135.48;;;44.28;;
23539;SDS011;11947;50.810;4.394;2023-02-15T07:30:27;129.80;;;45.05;;
23539;SDS011;11947;50.810;4.394;2023-02-15T07:32:56;119.95;;;45.33;;
23539;SDS011;11947;50.810;4.394;2023-02-15T07:35:48;118.32;;;44.72;;
23539;SDS011;11947;50.810;4.394;2023-02-15T07:38:18;119.80;;;45.10;;
23539;SDS011;11947;50.810;4.394;2023-02-15T07:40:44;130.88;;;45.35;;
23539;SDS011;11947;50.810;4.394;2023-02-15T07:43:10;130.43;;;46.85;;
23539;SDS011;11947;50.810;4.394;2023-02-15T07:45:36;129.10;;;47.50;;
23539;SDS011;11947;50.810;4.394;2023-02-15T07:48:03;129.80;;;46.58;;
23539;SDS011;11947;50.810;4.394;2023-02-15T07:50:29;131.85;;;47.35;;
23539;SDS011;11947;50.810;4.394;2023-02-15T07:52:55;136.20;;;47.25;;
23539;SDS011;11947;50.810;4.394;2023-02-15T07:55:22;133.82;;;48.00;;
23539;SDS011;11947;50.810;4.394;2023-02-15T07:57:49;121.45;;;46.78;;
23539;SDS011;11947;50.810;4.394;2023-02-15T08:00:17;140.05;;;48.25;;
23539;SDS011;11947;50.810;4.394;2023-02-15T08:02:48;135.05;;;48.90;;
23539;SDS011;11947;50.810;4.394;2023-02-15T08:05:38;128.35;;;46.85;;
23539;SDS011;11947;50.810;4.394;2023-02-15T08:08:05;126.65;;;47.78;;
23539;SDS011;11947;50.810;4.394;2023-02-15T08:10:31;125.63;;;49.38;;
23539;SDS011;11947;50.810;4.394;2023-02-15T08:13:15;123.90;;;47.72;;
23539;SDS011;11947;50.810;4.394;2023-02-15T08:15:47;125.25;;;47.92;;
23539;SDS011;11947;50.810;4.394;2023-02-15T08:20:39;118.07;;;46.50;;
23539;SDS011;11947;50.810;4.394;2023-02-15T08:23:05;124.20;;;48.00;;
23539;SDS011;11947;50.810;4.394;2023-02-15T08:25:30;139.57;;;50.60;;
23539;SDS011;11947;50.810;4.394;2023-02-15T08:27:56;137.45;;;49.15;;
23539;SDS011;11947;50.810;4.394;2023-02-15T08:30:21;136.25;;;50.00;;
23539;SDS011;11947;50.810;4.394;2023-02-15T08:32:47;138.75;;;49.28;;
23539;SDS011;11947;50.810;4.394;2023-02-15T08:35:13;129.32;;;48.90;;
23539;SDS011;11947;50.810;4.394;2023-02-15T08:37:38;119.50;;;46.55;;
23539;SDS011;11947;50.810;4.394;2023-02-15T08:40:04;124.30;;;47.72;;
23539;SDS011;11947;50.810;4.394;2023-02-15T08:42:32;104.93;;;38.17;;
23539;SDS011;11947;50.810;4.394;2023-02-15T08:44:58;96.63;;;37.47;;
23539;SDS011;11947;50.810;4.394;2023-02-15T08:47:24;79.80;;;31.38;;
23539;SDS011;11947;50.810;4.394;2023-02-15T08:49:50;81.22;;;32.08;;
23539;SDS011;11947;50.810;4.394;2023-02-15T08:52:16;72.28;;;29.23;;
23539;SDS011;11947;50.810;4.394;2023-02-15T08:54:41;76.95;;;29.02;;
23539;SDS011;11947;50.810;4.394;2023-02-15T08:57:07;60.90;;;26.30;;
23539;SDS011;11947;50.810;4.394;2023-02-15T08:59:33;65.03;;;25.85;;
23539;SDS011;11947;50.810;4.394;2023-02-15T09:01:58;61.95;;;26.65;;
23539;SDS011;11947;50.810;4.394;2023-02-15T09:04:25;64.82;;;27.10;;
23539;SDS011;11947;50.810;4.394;2023-02-15T09:06:51;66.65;;;27.60;;
23539;SDS011;11947;50.810;4.394;2023-02-15T09:09:17;63.33;;;25.20;;
23539;SDS011;11947;50.810;4.394;2023-02-15T09:11:45;68.57;;;26.02;;
23539;SDS011;11947;50.810;4.394;2023-02-15T09:14:16;62.17;;;26.90;;
23539;SDS011;11947;50.810;4.394;2023-02-15T09:16:45;65.82;;;25.90;;
23539;SDS011;11947;50.810;4.394;2023-02-15T09:19:13;80.97;;;27.63;;
23539;SDS011;11947;50.810;4.394;2023-02-15T09:21:39;60.92;;;26.50;;
23539;SDS011;11947;50.810;4.394;2023-02-15T09:24:06;61.58;;;25.90;;
23539;SDS011;11947;50.810;4.394;2023-02-15T09:26:36;58.28;;;26.42;;
23539;SDS011;11947;50.810;4.394;2023-02-15T09:29:05;63.10;;;26.67;;
23539;SDS011;11947;50.810;4.394;2023-02-15T09:31:32;62.10;;;27.20;;
23539;SDS011;11947;50.810;4.394;2023-02-15T09:33:59;61.83;;;27.15;;
23539;SDS011;11947;50.810;4.394;2023-02-15T09:36:27;62.83;;;28.30;;
23539;SDS011;11947;50.810;4.394;2023-02-15T09:38:58;61.75;;;26.88;;
23539;SDS011;11947;50.810;4.394;2023-02-15T09:44:15;58.08;;;26.92;;
23539;SDS011;11947;50.810;4.394;2023-02-15T10:00:54;58.70;;;26.73;;
23539;SDS011;11947;50.810;4.394;2023-02-15T10:14:51;55.60;;;27.23;;
23539;SDS011;11947;50.810;4.394;2023-02-15T10:20:35;55.83;;;25.20;;
23539;SDS011;11947;50.810;4.394;2023-02-15T10:28:28;53.08;;;25.52;;
23539;SDS011;11947;50.810;4.394;2023-02-15T10:33:46;54.95;;;26.27;;
23539;SDS011;11947;50.810;4.394;2023-02-15T10:41:51;56.63;;;26.33;;
23539;SDS011;11947;50.810;4.394;2023-02-15T10:55:40;52.90;;;25.67;;
23539;SDS011;11947;50.810;4.394;2023-02-15T11:06:43;53.75;;;26.10;;
23539;SDS011;11947;50.810;4.394;2023-02-15T11:09:13;53.55;;;26.02;;
23539;SDS011;11947;50.810;4.394;2023-02-15T11:11:43;47.92;;;25.27;;
23539;SDS011;11947;50.810;4.394;2023-02-15T11:14:17;52.55;;;26.40;;
23539;SDS011;11947;50.810;4.394;2023-02-15T11:16:53;54.60;;;25.90;;
23539;SDS011;11947;50.810;4.394;2023-02-15T11:19:41;56.67;;;26.15;;
23539;SDS011;11947;50.810;4.394;2023-02-15T11:22:16;53.80;;;26.98;;
23539;SDS011;11947;50.810;4.394;2023-02-15T11:24:43;51.92;;;26.35;;
23539;SDS011;11947;50.810;4.394;2023-02-15T11:27:23;49.58;;;26.50;;
23539;SDS011;11947;50.810;4.394;2023-02-15T11:29:55;53.47;;;26.52;;
23539;SDS011;11947;50.810;4.394;2023-02-15T11:35:10;55.10;;;27.08;;
23539;SDS011;11947;50.810;4.394;2023-02-15T11:38:01;54.22;;;26.35;;
23539;SDS011;11947;50.810;4.394;2023-02-15T11:43:16;56.92;;;28.45;;
23539;SDS011;11947;50.810;4.394;2023-02-15T11:45:50;52.50;;;27.70;;
23539;SDS011;11947;50.810;4.394;2023-02-15T11:48:16;59.72;;;28.60;;
23539;SDS011;11947;50.810;4.394;2023-02-15T11:50:42;53.03;;;28.85;;
23539;SDS011;11947;50.810;4.394;2023-02-15T11:53:17;54.35;;;28.20;;
23539;SDS011;11947;50.810;4.394;2023-02-15T11:55:46;56.42;;;28.20;;
23539;SDS011;11947;50.810;4.394;2023-02-15T12:01:00;54.10;;;27.98;;
23539;SDS011;11947;50.810;4.394;2023-02-15T12:03:48;60.95;;;29.23;;
23539;SDS011;11947;50.810;4.394;2023-02-15T12:06:21;54.08;;;28.52;;
23539;SDS011;11947;50.810;4.394;2023-02-15T12:08:57;62.83;;;28.48;;
23539;SDS011;11947;50.810;4.394;2023-02-15T12:11:38;56.10;;;29.02;;
23539;SDS011;11947;50.810;4.394;2023-02-15T12:14:10;56.80;;;29.20;;
23539;SDS011;11947;50.810;4.394;2023-02-15T12:19:13;58.38;;;30.02;;
23539;SDS011;11947;50.810;4.394;2023-02-15T12:21:42;59.70;;;29.60;;
23539;SDS011;11947;50.810;4.394;2023-02-15T12:24:21;55.75;;;29.45;;
23539;SDS011;11947;50.810;4.394;2023-02-15T12:27:14;60.53;;;30.15;;
23539;SDS011;11947;50.810;4.394;2023-02-15T12:29:52;63.38;;;32.80;;
23539;SDS011;11947;50.810;4.394;2023-02-15T12:32:34;64.55;;;32.63;;
23539;SDS011;11947;50.810;4.394;2023-02-15T12:35:26;64.95;;;33.13;;
23539;SDS011;11947;50.810;4.394;2023-02-15T12:38:00;58.20;;;30.95;;
23539;SDS011;11947;50.810;4.394;2023-02-15T12:40:31;61.67;;;31.80;;
23539;SDS011;11947;50.810;4.394;2023-02-15T12:42:58;52.65;;;32.25;;
23539;SDS011;11947;50.810;4.394;2023-02-15T12:45:28;58.10;;;31.08;;
23539;SDS011;11947;50.810;4.394;2023-02-15T12:48:18;50.85;;;30.55;;
23539;SDS011;11947;50.810;4.394;2023-02-15T12:50:46;52.13;;;31.30;;
23539;SDS011;11947;50.810;4.394;2023-02-15T12:56:00;52.78;;;32.45;;
23539;SDS011;11947;50.810;4.394;2023-02-15T12:58:31;52.15;;;30.83;;
23539;SDS011;11947;50.810;4.394;2023-02-15T13:01:22;53.90;;;31.65;;
23539;SDS011;11947;50.810;4.394;2023-02-15T13:03:59;50.97;;;31.35;;
23539;SDS011;11947;50.810;4.394;2023-02-15T13:06:30;49.22;;;31.85;;
23539;SDS011;11947;50.810;4.394;2023-02-15T13:09:04;48.10;;;30.90;;
23539;SDS011;11947;50.810;4.394;2023-02-15T13:11:39;50.53;;;31.05;;
23539;SDS011;11947;50.810;4.394;2023-02-15T13:17:00;51.88;;;31.77;;
23539;SDS011;11947;50.810;4.394;2023-02-15T13:22:00;51.20;;;32.75;;
23539;SDS011;11947;50.810;4.394;2023-02-15T13:24:33;52.08;;;31.50;;
23539;SDS011;11947;50.810;4.394;2023-02-15T13:27:04;50.15;;;33.35;;
23539;SDS011;11947;50.810;4.394;2023-02-15T13:29:31;50.88;;;33.55;;
23539;SDS011;11947;50.810;4.394;2023-02-15T13:32:05;51.80;;;32.50;;
23539;SDS011;11947;50.810;4.394;2023-02-15T13:34:37;54.03;;;34.00;;
23539;SDS011;11947;50.810;4.394;2023-02-15T13:45:06;59.47;;;34.92;;
23539;SDS011;11947;50.810;4.394;2023-02-15T13:47:47;58.80;;;34.95;;
23539;SDS011;11947;50.810;4.394;2023-02-15T13:50:37;57.25;;;35.03;;
23539;SDS011;11947;50.810;4.394;2023-02-15T13:55:40;54.30;;;35.58;;
23539;SDS011;11947;50.810;4.394;2023-02-15T14:01:09;61.58;;;36.80;;
23539;SDS011;11947;50.810;4.394;2023-02-15T14:11:44;69.65;;;37.22;;
23539;SDS011;11947;50.810;4.394;2023-02-15T14:19:48;65.57;;;37.13;;
23539;SDS011;11947;50.810;4.394;2023-02-15T14:28:06;75.13;;;36.20;;
23539;SDS011;11947;50.810;4.394;2023-02-15T14:30:39;78.00;;;38.17;;
23539;SDS011;11947;50.810;4.394;2023-02-15T14:33:14;71.93;;;37.47;;
23539;SDS011;11947;50.810;4.394;2023-02-15T14:36:03;92.07;;;39.65;;
23539;SDS011;11947;50.810;4.394;2023-02-15T14:41:02;75.47;;;41.00;;
23539;SDS011;11947;50.810;4.394;2023-02-15T14:46:25;76.47;;;39.63;;
23539;SDS011;11947;50.810;4.394;2023-02-15T14:48:59;78.93;;;39.47;;
23539;SDS011;11947;50.810;4.394;2023-02-15T14:54:09;73.53;;;36.92;;
23539;SDS011;11947;50.810;4.394;2023-02-15T14:56:36;70.95;;;37.78;;
23539;SDS011;11947;50.810;4.394;2023-02-15T14:59:14;73.00;;;36.45;;
23539;SDS011;11947;50.810;4.394;2023-02-15T15:01:57;76.68;;;40.03;;
23539;SDS011;11947;50.810;4.394;2023-02-15T15:07:45;83.25;;;41.15;;
23539;SDS011;11947;50.810;4.394;2023-02-15T15:12:55;79.90;;;41.25;;
23539;SDS011;11947;50.810;4.394;2023-02-15T15:20:37;89.95;;;41.42;;
23539;SDS011;11947;50.810;4.394;2023-02-15T15:25:46;79.57;;;38.03;;
23539;SDS011;11947;50.810;4.394;2023-02-15T15:39:28;80.20;;;40.33;;
23539;SDS011;11947;50.810;4.394;2023-02-15T15:50:52;80.05;;;40.22;;
23539;SDS011;11947;50.810;4.394;2023-02-15T15:53:22;84.05;;;41.85;;
23539;SDS011;11947;50.810;4.394;2023-02-15T15:55:50;77.75;;;41.95;;
23539;SDS011;11947;50.810;4.394;2023-02-15T15:58:22;82.25;;;41.45;;
23539;SDS011;11947;50.810;4.394;2023-02-15T16:00:54;81.28;;;40.80;;
23539;SDS011;11947;50.810;4.394;2023-02-15T16:03:29;80.90;;;39.65;;
23539;SDS011;11947;50.810;4.394;2023-02-15T16:05:55;83.32;;;41.67;;
23539;SDS011;11947;50.810;4.394;2023-02-15T16:08:37;85.95;;;40.63;;
23539;SDS011;11947;50.810;4.394;2023-02-15T16:11:12;89.32;;;41.58;;
23539;SDS011;11947;50.810;4.394;2023-02-15T16:13:41;79.68;;;40.35;;
23539;SDS011;11947;50.810;4.394;2023-02-15T16:16:08;80.32;;;40.05;;
23539;SDS011;11947;50.810;4.394;2023-02-15T16:18:37;80.55;;;39.58;;
23539;SDS011;11947;50.810;4.394;2023-02-15T16:21:03;85.88;;;39.80;;
23539;SDS011;11947;50.810;4.394;2023-02-15T16:29:18;106.38;;;50.75;;
23539;SDS011;11947;50.810;4.394;2023-02-15T16:32:01;102.30;;;46.95;;
23539;SDS011;11947;50.810;4.394;2023-02-15T16:34:32;103.60;;;43.70;;
23539;SDS011;11947;50.810;4.394;2023-02-15T16:37:14;94.60;;;41.92;;
23539;SDS011;11947;50.810;4.394;2023-02-15T16:39:41;89.95;;;39.92;;
23539;SDS011;11947;50.810;4.394;2023-02-15T16:42:08;87.07;;;40.60;;
23539;SDS011;11947;50.810;4.394;2023-02-15T16:44:35;93.13;;;42.90;;
23539;SDS011;11947;50.810;4.394;2023-02-15T16:47:01;84.88;;;41.65;;
23539;SDS011;11947;50.810;4.394;2023-02-15T16:49:27;97.28;;;42.05;;
23539;SDS011;11947;50.810;4.394;2023-02-15T16:51:55;89.97;;;41.53;;
23539;SDS011;11947;50.810;4.394;2023-02-15T16:54:25;85.10;;;40.88;;
23539;SDS011;11947;50.810;4.394;2023-02-15T16:56:53;85.97;;;41.03;;
23539;SDS011;11947;50.810;4.394;2023-02-15T16:59:29;87.53;;;40.88;;
23539;SDS011;11947;50.810;4.394;2023-02-15T17:02:14;82.32;;;39.72;;
23539;SDS011;11947;50.810;4.394;2023-02-15T17:04:42;90.57;;;41.05;;
23539;SDS011;11947;50.810;4.394;2023-02-15T17:09:54;93.00;;;43.70;;
23539;SDS011;11947;50.810;4.394;2023-02-15T17:18:01;97.43;;;43.40;;
23539;SDS011;11947;50.810;4.394;2023-02-15T17:20:27;97.63;;;43.33;;
23539;SDS011;11947;50.810;4.394;2023-02-15T17:22:54;97.90;;;42.90;;
23539;SDS011;11947;50.810;4.394;2023-02-15T17:25:20;92.40;;;42.45;;
23539;SDS011;11947;50.810;4.394;2023-02-15T17:27:52;89.95;;;42.92;;
23539;SDS011;11947;50.810;4.394;2023-02-15T17:30:30;96.93;;;43.63;;
23539;SDS011;11947;50.810;4.394;2023-02-15T17:32:58;89.45;;;41.92;;
23539;SDS011;11947;50.810;4.394;2023-02-15T17:35:27;94.43;;;43.67;;
23539;SDS011;11947;50.810;4.394;2023-02-15T17:38:01;90.05;;;42.15;;
23539;SDS011;11947;50.810;4.394;2023-02-15T17:40:43;96.07;;;43.13;;
23539;SDS011;11947;50.810;4.394;2023-02-15T17:43:09;91.07;;;42.20;;
23539;SDS011;11947;50.810;4.394;2023-02-15T17:45:36;96.10;;;42.28;;
23539;SDS011;11947;50.810;4.394;2023-02-15T17:48:09;88.47;;;41.38;;
23539;SDS011;11947;50.810;4.394;2023-02-15T17:50:40;89.75;;;40.15;;
23539;SDS011;11947;50.810;4.394;2023-02-15T17:53:07;85.47;;;39.90;;